Time;durP1;ratioP1;P1;durP2;ratioP2;P2;SDS_P1;SDS_P2;PMS_P1;PMS_P2;Temp;Humidity;BMP_temperature;BMP_pressure;BME280_temperature;BME280_humidity;BME280_pressure;Samples;Min_cycle;Max_cycle;Signal;HPM_P1;HPM_P2
2022/01/29 00:01:20;;;;;;;1.42;1.20;;;7.80;99.90;;;;;;6190872;23;20004;-66
2022/01/29 00:03:46;;;;;;;1.70;1.23;;;7.80;99.90;;;;;;6217701;23;20005;-66
2022/01/29 00:06:16;;;;;;;1.63;1.35;;;7.80;99.90;;;;;;6217223;23;20009;-66
2022/01/29 00:08:43;;;;;;;2.90;1.40;;;7.80;99.90;;;;;;6217321;23;20016;-66
2022/01/29 00:11:13;;;;;;;6.85;1.58;;;7.80;99.90;;;;;;6217399;23;19996;-66
2022/01/29 00:13:41;;;;;;;6.47;1.20;;;7.80;99.90;;;;;;6217334;23;20016;-66
2022/01/29 00:16:08;;;;;;;4.05;1.55;;;7.80;99.90;;;;;;6217042;23;20019;-66
2022/01/29 00:18:35;;;;;;;5.22;1.30;;;7.80;99.90;;;;;;6217489;23;20449;-66
2022/01/29 00:21:03;;;;;;;2.65;1.65;;;7.80;99.90;;;;;;6217204;23;20012;-66
2022/01/29 00:23:29;;;;;;;3.90;1.63;;;7.80;99.90;;;;;;6216992;23;20004;-66
2022/01/29 00:25:57;;;;;;;7.80;1.50;;;7.80;99.90;;;;;;6217044;23;20338;-66
2022/01/29 00:28:23;;;;;;;3.35;1.77;;;7.80;99.90;;;;;;6217110;23;20063;-66
2022/01/29 00:30:49;;;;;;;6.10;2.38;;;7.80;99.90;;;;;;6217341;23;20065;-66
2022/01/29 00:33:16;;;;;;;9.23;2.70;;;7.80;99.90;;;;;;6217382;23;20308;-66
2022/01/29 00:35:43;;;;;;;3.58;1.58;;;7.80;99.90;;;;;;6217456;23;20012;-66
2022/01/29 00:38:09;;;;;;;3.35;1.70;;;7.80;99.90;;;;;;6217143;23;20028;-66
2022/01/29 00:40:37;;;;;;;4.03;2.05;;;7.80;99.90;;;;;;6190424;23;20385;-66
2022/01/29 00:43:05;;;;;;;2.83;1.80;;;7.80;99.90;;;;;;6190597;23;20419;-66
2022/01/29 00:45:32;;;;;;;3.85;2.28;;;7.80;99.90;;;;;;6216960;23;20009;-66
2022/01/29 00:47:59;;;;;;;3.50;1.90;;;7.80;99.90;;;;;;6216728;23;20342;-66
2022/01/29 00:50:26;;;;;;;4.22;1.50;;;7.70;99.90;;;;;;6216868;23;20001;-66
2022/01/29 00:52:52;;;;;;;4.90;1.70;;;7.80;99.90;;;;;;6216777;23;20027;-66
2022/01/29 00:55:18;;;;;;;2.50;1.52;;;7.70;99.90;;;;;;6217930;23;20004;-66
2022/01/29 00:57:45;;;;;;;2.58;1.50;;;7.70;99.90;;;;;;6217219;23;20009;-66
2022/01/29 01:00:13;;;;;;;2.88;1.83;;;7.70;99.90;;;;;;6217244;23;20079;-66
2022/01/29 01:02:43;;;;;;;5.38;2.75;;;7.70;99.90;;;;;;6217138;23;20000;-66
2022/01/29 01:05:10;;;;;;;6.75;1.35;;;7.70;99.90;;;;;;6216855;23;20036;-66
2022/01/29 01:07:38;;;;;;;7.97;1.40;;;7.70;99.90;;;;;;6216713;23;20023;-66
2022/01/29 01:10:24;;;;;;;3.72;1.45;;;7.70;99.90;;;;;;6190174;23;20411;-66
2022/01/29 01:12:51;;;;;;;6.63;1.63;;;7.70;99.90;;;;;;6216858;23;20008;-66
2022/01/29 01:15:18;;;;;;;2.45;1.75;;;7.70;99.90;;;;;;6216479;23;20012;-66
2022/01/29 01:17:44;;;;;;;8.00;1.90;;;7.70;99.90;;;;;;6216600;23;20008;-66
2022/01/29 01:20:11;;;;;;;3.45;1.27;;;7.70;99.90;;;;;;6216727;23;20009;-66
2022/01/29 01:22:38;;;;;;;4.53;1.10;;;7.70;99.90;;;;;;6216701;23;20013;-66
2022/01/29 01:25:06;;;;;;;2.55;0.98;;;7.80;99.90;;;;;;6216904;23;20035;-66
2022/01/29 01:27:32;;;;;;;1.33;1.08;;;7.80;99.90;;;;;;6216408;23;20023;-66
2022/01/29 01:30:09;;;;;;;3.97;1.38;;;7.80;99.90;;;;;;6216648;23;19997;-66
2022/01/29 01:32:37;;;;;;;9.07;0.85;;;7.90;99.90;;;;;;6216578;23;20422;-66
2022/01/29 01:35:30;;;;;;;1.10;0.60;;;7.90;99.90;;;;;;6216868;23;20031;-66
2022/01/29 01:38:06;;;;;;;3.67;0.68;;;7.90;99.90;;;;;;6216362;23;20005;-66
2022/01/29 01:40:34;;;;;;;2.13;0.93;;;8.00;99.90;;;;;;6216358;23;20005;-66
2022/01/29 01:43:07;;;;;;;2.88;0.50;;;8.00;99.90;;;;;;6216842;23;20012;-66
2022/01/29 01:45:33;;;;;;;2.67;0.75;;;8.00;99.90;;;;;;6216265;23;20016;-66
2022/01/29 01:48:04;;;;;;;1.10;0.88;;;8.00;99.90;;;;;;6216291;23;20360;-66
2022/01/29 01:50:38;;;;;;;8.02;0.75;;;8.00;99.90;;;;;;6216351;23;20000;-66
2022/01/29 01:53:08;;;;;;;3.08;0.55;;;8.00;99.90;;;;;;6216431;23;20004;-66
2022/01/29 01:55:35;;;;;;;2.22;0.73;;;8.00;99.90;;;;;;6216405;23;20000;-66
2022/01/29 01:58:01;;;;;;;3.42;1.20;;;8.10;99.90;;;;;;6189519;23;20008;-66
2022/01/29 02:00:29;;;;;;;0.65;0.40;;;8.10;99.90;;;;;;6216207;23;20445;-66
2022/01/29 02:03:05;;;;;;;2.53;0.57;;;8.10;99.90;;;;;;6216345;23;20028;-66
2022/01/29 02:05:31;;;;;;;1.95;0.70;;;8.10;99.90;;;;;;6216255;23;20008;-66
2022/01/29 02:08:01;;;;;;;2.10;0.60;;;8.20;99.90;;;;;;6216084;23;20016;-66
2022/01/29 02:10:31;;;;;;;1.90;0.82;;;8.20;99.90;;;;;;6216036;23;20008;-66
2022/01/29 02:13:03;;;;;;;3.25;0.60;;;8.10;99.90;;;;;;6216096;23;20004;-66
2022/01/29 02:15:30;;;;;;;3.60;0.70;;;8.10;99.90;;;;;;6216034;23;20016;-66
2022/01/29 02:17:58;;;;;;;1.13;0.70;;;8.10;99.90;;;;;;6216576;23;20011;-66
2022/01/29 02:20:34;;;;;;;1.60;0.73;;;8.10;99.90;;;;;;6216550;23;20433;-66
2022/01/29 02:23:00;;;;;;;3.40;0.65;;;8.10;99.90;;;;;;6216521;23;20080;-66
2022/01/29 02:25:51;;;;;;;4.03;0.65;;;8.10;99.90;;;;;;6189752;23;20133;-66
2022/01/29 02:28:20;;;;;;;1.75;0.60;;;8.10;99.90;;;;;;6215962;23;20012;-66
2022/01/29 02:30:56;;;;;;;3.75;1.00;;;8.10;99.90;;;;;;6216036;23;20005;-66
2022/01/29 02:33:23;;;;;;;0.75;0.50;;;8.10;99.90;;;;;;6215989;23;20028;-66
2022/01/29 02:35:53;;;;;;;3.47;0.60;;;8.10;99.90;;;;;;6216292;23;20445;-66
2022/01/29 02:38:22;;;;;;;4.35;0.70;;;8.10;99.90;;;;;;6216446;23;20005;-66
2022/01/29 02:40:57;;;;;;;0.75;0.50;;;8.20;99.90;;;;;;6215973;23;20016;-66
2022/01/29 02:43:34;;;;;;;4.80;0.90;;;8.10;99.90;;;;;;6216190;23;20087;-66
2022/01/29 02:48:57;;;;;;;1.70;0.52;;;8.10;99.90;;;;;;6215950;23;20015;-66
2022/01/29 02:51:24;;;;;;;5.82;0.60;;;8.10;99.90;;;;;;6216284;23;20008;-66
2022/01/29 02:53:53;;;;;;;9.95;1.33;;;8.10;99.90;;;;;;6215911;23;20008;-65
2022/01/29 02:56:20;;;;;;;4.10;1.42;;;8.00;99.90;;;;;;6215851;23;20013;-66
2022/01/29 02:58:55;;;;;;;1.85;0.90;;;7.90;99.90;;;;;;6215988;23;20423;-66
2022/01/29 03:01:22;;;;;;;4.53;1.27;;;7.80;99.90;;;;;;6216163;23;20016;-66
2022/01/29 03:03:48;;;;;;;1.92;0.57;;;7.80;99.90;;;;;;6215836;23;20024;-66
2022/01/29 03:06:15;;;;;;;3.65;1.27;;;7.70;99.90;;;;;;6189284;23;20434;-66
2022/01/29 03:08:41;;;;;;;4.35;1.00;;;7.70;99.90;;;;;;6215766;23;20004;-66
2022/01/29 03:11:08;;;;;;;3.67;1.10;;;7.70;99.90;;;;;;6217392;23;20016;-66
2022/01/29 03:13:34;;;;;;;1.85;0.80;;;7.70;99.90;;;;;;6217830;23;20004;-66
2022/01/29 03:16:04;;;;;;;2.70;0.75;;;7.70;99.90;;;;;;6217669;23;20022;-66
2022/01/29 03:18:31;;;;;;;5.35;1.02;;;7.70;99.90;;;;;;6218309;23;20366;-66
2022/01/29 03:20:57;;;;;;;3.47;0.70;;;7.70;99.90;;;;;;6218230;23;20066;-65
2022/01/29 03:23:24;;;;;;;4.78;1.75;;;7.70;99.90;;;;;;6217854;23;20088;-66
2022/01/29 03:25:50;;;;;;;1.02;0.50;;;7.70;99.90;;;;;;6218154;23;20358;-66
2022/01/29 03:28:17;;;;;;;2.40;0.80;;;7.80;99.90;;;;;;6217985;23;20113;-65
2022/01/29 03:30:44;;;;;;;8.93;1.10;;;7.80;99.90;;;;;;6218034;23;20327;-66
2022/01/29 03:33:12;;;;;;;3.47;0.98;;;7.90;99.90;;;;;;6217752;23;20008;-66
2022/01/29 03:35:38;;;;;;;7.13;1.15;;;8.00;99.90;;;;;;6217577;23;20001;-66
2022/01/29 03:38:06;;;;;;;3.42;1.05;;;8.10;99.90;;;;;;6217605;23;20083;-65
2022/01/29 03:40:34;;;;;;;5.10;1.00;;;8.20;99.90;;;;;;6217586;23;20331;-66
2022/01/29 03:43:14;;;;;;;4.05;1.70;;;8.30;99.90;;;;;;6217979;23;20063;-65
2022/01/29 03:45:41;;;;;;;0.95;0.55;;;8.20;99.90;;;;;;6217578;23;20004;-66
2022/01/29 03:48:07;;;;;;;5.47;1.60;;;8.20;99.90;;;;;;6217582;23;20036;-66
2022/01/29 03:50:36;;;;;;;3.42;1.45;;;8.20;99.90;;;;;;6217613;23;20004;-65
2022/01/29 03:53:06;;;;;;;6.38;1.27;;;8.10;99.90;;;;;;6217510;23;20431;-65
2022/01/29 03:55:35;;;;;;;5.95;1.27;;;8.10;99.90;;;;;;6217792;23;20005;-66
2022/01/29 03:58:02;;;;;;;2.60;1.05;;;8.10;99.90;;;;;;6218437;23;20009;-65
2022/01/29 04:00:29;;;;;;;4.82;1.17;;;8.10;99.90;;;;;;6217521;23;20005;-65
2022/01/29 04:03:02;;;;;;;5.97;1.50;;;8.10;99.90;;;;;;6217177;23;20474;-66
2022/01/29 04:05:29;;;;;;;1.55;1.02;;;8.10;99.90;;;;;;6217447;23;20009;-66
2022/01/29 04:07:55;;;;;;;3.50;0.60;;;8.10;99.90;;;;;;6190729;23;20019;-65
2022/01/29 04:10:23;;;;;;;1.35;0.68;;;8.10;99.90;;;;;;6217354;23;20004;-66
2022/01/29 04:12:52;;;;;;;3.30;1.10;;;8.10;99.90;;;;;;6217222;23;20071;-66
2022/01/29 04:15:19;;;;;;;2.80;0.88;;;8.10;99.90;;;;;;6217080;23;20013;-66
2022/01/29 04:17:46;;;;;;;2.75;1.38;;;8.10;99.90;;;;;;6217620;23;20079;-66
2022/01/29 04:20:13;;;;;;;3.55;0.82;;;8.10;99.90;;;;;;6218157;23;20549;-66
2022/01/29 04:22:40;;;;;;;5.70;1.45;;;8.10;99.90;;;;;;6217284;23;20005;-66
2022/01/29 04:25:10;;;;;;;3.20;1.15;;;8.00;99.90;;;;;;6217240;23;20000;-66
2022/01/29 04:27:43;;;;;;;1.77;1.35;;;8.10;99.90;;;;;;6217043;23;20367;-66
2022/01/29 04:32:59;;;;;;;1.92;0.90;;;8.00;99.90;;;;;;6217017;23;20019;-66
2022/01/29 04:35:26;;;;;;;1.90;0.70;;;8.00;99.90;;;;;;6217053;23;20009;-66
2022/01/29 04:37:53;;;;;;;3.63;0.80;;;8.10;99.90;;;;;;6217148;23;20003;-65
2022/01/29 04:40:20;;;;;;;2.40;1.15;;;8.10;99.90;;;;;;6216998;23;20008;-66
2022/01/29 04:42:49;;;;;;;1.63;0.73;;;8.10;99.90;;;;;;6217024;23;20331;-65
2022/01/29 04:45:16;;;;;;;8.63;1.23;;;8.10;99.90;;;;;;6216820;23;20012;-66
2022/01/29 04:47:43;;;;;;;1.95;0.70;;;8.10;99.90;;;;;;6217271;23;20021;-66
2022/01/29 04:50:10;;;;;;;2.03;0.85;;;8.10;99.90;;;;;;6216967;23;20055;-66
2022/01/29 04:52:37;;;;;;;1.75;0.90;;;8.00;99.90;;;;;;6216850;23;20019;-66
2022/01/29 04:55:04;;;;;;;4.65;1.10;;;8.00;99.90;;;;;;6216872;23;20005;-66
2022/01/29 04:57:36;;;;;;;2.03;0.95;;;8.00;99.90;;;;;;6216707;23;20458;-66
2022/01/29 05:00:08;;;;;;;2.55;1.50;;;8.00;99.90;;;;;;6216954;23;20016;-66
2022/01/29 05:02:35;;;;;;;2.20;0.73;;;8.00;99.90;;;;;;6216806;23;20012;-66
2022/01/29 05:05:03;;;;;;;5.63;1.60;;;8.00;99.90;;;;;;6216860;23;20005;-66
2022/01/29 05:07:30;;;;;;;1.50;1.08;;;8.00;99.90;;;;;;6190067;23;20035;-65
2022/01/29 05:09:56;;;;;;;1.75;0.70;;;7.90;99.90;;;;;;6217188;23;20054;-66
2022/01/29 05:12:32;;;;;;;2.75;0.93;;;7.90;99.90;;;;;;6216700;23;20070;-65
2022/01/29 05:15:09;;;;;;;2.42;0.65;;;7.90;99.90;;;;;;6216844;23;20087;-66
2022/01/29 05:28:40;;;;;;;3.05;0.77;;;8.00;99.90;;;;;;6190072;23;20346;-66
2022/01/29 05:31:07;;;;;;;5.85;0.90;;;8.00;99.90;;;;;;6216513;23;20039;-66
2022/01/29 05:33:36;;;;;;;1.75;0.70;;;8.00;99.90;;;;;;6217038;23;20031;-65
2022/01/29 05:36:06;;;;;;;1.38;0.70;;;8.00;99.90;;;;;;6216914;23;20318;-66
2022/01/29 05:38:34;;;;;;;1.92;0.77;;;8.00;99.90;;;;;;6216478;23;20000;-65
2022/01/29 05:41:03;;;;;;;4.55;0.77;;;8.00;99.90;;;;;;6216465;23;20009;-66
2022/01/29 05:43:30;;;;;;;2.30;0.98;;;7.90;99.90;;;;;;6216794;23;20003;-65
2022/01/29 05:45:56;;;;;;;4.13;0.98;;;7.90;99.90;;;;;;6216376;23;20004;-65
2022/01/29 05:48:23;;;;;;;7.72;0.80;;;7.90;99.90;;;;;;6216263;23;20465;-66
2022/01/29 05:50:50;;;;;;;1.40;0.70;;;7.80;99.90;;;;;;6216568;23;20000;-66
2022/01/29 05:53:16;;;;;;;3.88;1.10;;;7.90;99.90;;;;;;6216162;23;20005;-66
2022/01/29 05:55:43;;;;;;;5.68;1.08;;;7.90;99.90;;;;;;6216424;23;20065;-66
2022/01/29 05:58:10;;;;;;;6.13;0.63;;;7.90;99.90;;;;;;6189877;23;20005;-67
2022/01/29 06:00:37;;;;;;;5.38;1.08;;;7.90;99.90;;;;;;6216528;23;20055;-66
2022/01/29 06:03:06;;;;;;;1.95;0.70;;;7.90;99.90;;;;;;6216250;23;20001;-66
2022/01/29 06:05:35;;;;;;;0.50;0.43;;;7.90;99.90;;;;;;6189867;23;20008;-66
2022/01/29 06:08:05;;;;;;;5.00;1.42;;;7.90;99.90;;;;;;6216666;23;20027;-66
2022/01/29 06:10:33;;;;;;;3.85;1.00;;;7.90;99.90;;;;;;6216304;23;20000;-66
2022/01/29 06:13:09;;;;;;;3.28;0.93;;;7.80;99.90;;;;;;6216191;23;20004;-66
2022/01/29 06:15:42;;;;;;;3.75;0.82;;;7.90;99.90;;;;;;6215991;23;20384;-66
2022/01/29 06:18:13;;;;;;;0.88;0.73;;;7.80;99.90;;;;;;6216162;23;20012;-66
2022/01/29 06:20:41;;;;;;;2.42;0.70;;;7.80;99.90;;;;;;6216076;23;20001;-66
2022/01/29 06:23:14;;;;;;;0.75;0.75;;;7.90;99.90;;;;;;6216089;23;20012;-65
2022/01/29 06:25:42;;;;;;;2.10;1.00;;;7.90;99.90;;;;;;6216295;23;20012;-66
2022/01/29 06:28:11;;;;;;;2.40;0.80;;;7.90;99.90;;;;;;6215961;23;20070;-66
2022/01/29 06:30:44;;;;;;;3.33;0.77;;;7.90;99.90;;;;;;6216042;23;20009;-66
2022/01/29 06:33:13;;;;;;;4.90;1.27;;;7.90;99.90;;;;;;6215958;23;20032;-65
2022/01/29 06:35:43;;;;;;;5.50;1.33;;;7.90;99.90;;;;;;6216026;23;20153;-66
2022/01/29 06:38:15;;;;;;;3.33;1.67;;;7.90;99.90;;;;;;6189592;23;20001;-66
2022/01/29 06:40:42;;;;;;;4.50;1.20;;;7.90;99.90;;;;;;6215966;23;20017;-66
2022/01/29 06:43:09;;;;;;;4.93;2.30;;;8.00;99.90;;;;;;6215969;23;20015;-66
2022/01/29 06:45:38;;;;;;;3.95;2.08;;;8.00;99.90;;;;;;6189243;23;20005;-66
2022/01/29 06:48:05;;;;;;;6.47;1.83;;;8.00;99.90;;;;;;6215758;23;20381;-66
2022/01/29 06:50:32;;;;;;;7.75;1.75;;;8.10;99.90;;;;;;6215855;23;20040;-66
2022/01/29 06:52:59;;;;;;;1.85;0.95;;;8.10;99.90;;;;;;6189209;23;20346;-66
2022/01/29 06:55:26;;;;;;;2.72;1.13;;;8.10;99.90;;;;;;6215876;23;20008;-66
2022/01/29 06:57:55;;;;;;;4.28;1.73;;;8.10;99.90;;;;;;6216094;23;20009;-66
2022/01/29 07:00:25;;;;;;;4.80;1.90;;;8.10;99.90;;;;;;6215955;23;20009;-66
2022/01/29 07:02:52;;;;;;;5.15;1.58;;;8.10;99.90;;;;;;6215905;23;20347;-65
2022/01/29 07:05:19;;;;;;;1.27;0.90;;;8.10;99.90;;;;;;6215862;23;20000;-66
2022/01/29 07:07:45;;;;;;;4.65;1.27;;;8.10;99.90;;;;;;6215732;23;20024;-66
2022/01/29 07:10:13;;;;;;;3.40;1.00;;;8.30;99.90;;;;;;6215911;23;20005;-66
2022/01/29 07:12:40;;;;;;;2.30;0.80;;;8.30;99.90;;;;;;6216226;23;20031;-65
2022/01/29 07:15:09;;;;;;;2.83;1.42;;;8.40;99.90;;;;;;6215661;23;20013;-66
2022/01/29 07:17:37;;;;;;;5.22;0.80;;;8.50;99.90;;;;;;6215843;23;20009;-66
2022/01/29 07:20:05;;;;;;;1.42;1.23;;;8.60;99.90;;;;;;6215849;23;20035;-66
2022/01/29 07:22:34;;;;;;;6.22;1.10;;;8.80;99.90;;;;;;6216164;23;20382;-66
2022/01/29 07:25:05;;;;;;;4.63;0.80;;;8.80;99.90;;;;;;6215837;23;20079;-66
2022/01/29 07:27:32;;;;;;;3.13;0.70;;;8.80;99.90;;;;;;6189967;23;20017;-66
2022/01/29 07:30:02;;;;;;;2.45;0.80;;;8.90;99.90;;;;;;6215811;23;20103;-65
2022/01/29 07:32:29;;;;;;;2.63;0.88;;;8.90;99.90;;;;;;6215849;23;20005;-66
2022/01/29 07:34:58;;;;;;;2.75;0.70;;;8.90;99.90;;;;;;6215716;23;20059;-66
2022/01/29 07:37:25;;;;;;;1.52;0.50;;;9.00;99.90;;;;;;6215576;23;20013;-66
2022/01/29 07:39:52;;;;;;;0.40;0.40;;;9.00;99.90;;;;;;6216002;23;20008;-66
2022/01/29 07:42:18;;;;;;;2.83;0.50;;;9.00;99.90;;;;;;6215387;23;20004;-66
2022/01/29 07:44:48;;;;;;;7.00;1.00;;;9.00;99.90;;;;;;6215592;23;20032;-66
2022/01/29 07:47:15;;;;;;;2.50;0.50;;;9.00;99.90;;;;;;6215474;23;20454;-66
2022/01/29 07:49:44;;;;;;;0.73;0.40;;;9.10;99.90;;;;;;6215588;23;20051;-66
2022/01/29 07:52:11;;;;;;;1.55;0.50;;;9.20;99.90;;;;;;6215452;23;20012;-66
2022/01/29 07:54:38;;;;;;;2.25;0.63;;;9.30;99.90;;;;;;6215982;23;20334;-66
2022/01/29 07:57:05;;;;;;;2.58;0.93;;;9.40;99.90;;;;;;6189977;23;20007;-66
2022/01/29 07:59:35;;;;;;;3.60;0.40;;;9.40;99.90;;;;;;6217348;23;20039;-66
2022/01/29 08:02:02;;;;;;;0.73;0.60;;;9.40;99.90;;;;;;6217490;23;20004;-66
2022/01/29 08:04:28;;;;;;;8.82;1.17;;;9.30;99.90;;;;;;6217352;23;20437;-66
2022/01/29 08:06:55;;;;;;;1.25;0.50;;;9.30;99.90;;;;;;6217611;23;20019;-66
2022/01/29 08:09:21;;;;;;;1.55;0.57;;;9.40;99.90;;;;;;6217240;23;20013;-66
2022/01/29 08:11:48;;;;;;;0.98;0.63;;;9.40;99.90;;;;;;6217340;23;20027;-66
2022/01/29 08:14:15;;;;;;;1.48;0.70;;;9.40;99.90;;;;;;6217092;23;20000;-66
2022/01/29 08:16:42;;;;;;;2.13;0.60;;;9.40;99.90;;;;;;6217345;23;20009;-66
2022/01/29 08:19:08;;;;;;;2.17;0.70;;;9.50;99.90;;;;;;6217280;23;20071;-66
2022/01/29 08:21:38;;;;;;;2.92;0.77;;;9.50;99.90;;;;;;6217117;23;20009;-66
2022/01/29 08:24:15;;;;;;;1.13;0.55;;;9.50;99.90;;;;;;6217028;23;20434;-66
2022/01/29 08:26:42;;;;;;;1.08;0.52;;;9.60;99.90;;;;;;6217008;23;20439;-66
2022/01/29 08:29:08;;;;;;;2.20;0.40;;;9.50;99.90;;;;;;6217419;23;20008;-66
2022/01/29 08:31:35;;;;;;;1.05;0.60;;;9.60;99.90;;;;;;6217048;23;20004;-66
2022/01/29 08:34:02;;;;;;;4.28;0.73;;;9.60;99.90;;;;;;6216932;23;20079;-66
2022/01/29 08:36:29;;;;;;;5.15;1.05;;;9.70;99.90;;;;;;6216981;23;20055;-66
2022/01/29 08:38:58;;;;;;;1.75;0.80;;;9.60;99.90;;;;;;6217017;23;20009;-66
2022/01/29 08:41:25;;;;;;;0.90;0.43;;;9.60;99.90;;;;;;6216998;23;20009;-66
2022/01/29 08:43:52;;;;;;;3.13;1.35;;;9.60;99.90;;;;;;6217079;23;20001;-66
2022/01/29 08:46:19;;;;;;;2.17;0.47;;;9.60;99.90;;;;;;6216833;23;20008;-66
2022/01/29 08:48:45;;;;;;;2.00;0.63;;;9.70;99.90;;;;;;6216888;23;20000;-66
2022/01/29 08:51:12;;;;;;;0.63;0.52;;;9.70;99.90;;;;;;6217315;23;20058;-66
2022/01/29 08:53:41;;;;;;;5.10;0.93;;;9.70;99.90;;;;;;6216870;23;20009;-66
2022/01/29 08:56:09;;;;;;;1.23;1.05;;;9.60;99.90;;;;;;6216924;23;20027;-66
2022/01/29 08:58:36;;;;;;;0.52;0.50;;;9.60;99.90;;;;;;6216892;23;20304;-66
2022/01/29 09:01:07;;;;;;;1.88;0.65;;;9.60;99.90;;;;;;6216894;23;20047;-66
2022/01/29 09:03:35;;;;;;;0.73;0.70;;;9.70;99.90;;;;;;6216622;23;20008;-67
2022/01/29 09:06:03;;;;;;;1.42;0.60;;;9.70;99.90;;;;;;6216790;23;20009;-65
2022/01/29 09:08:30;;;;;;;4.20;0.93;;;9.70;99.90;;;;;;6216477;23;20024;-65
2022/01/29 09:11:03;;;;;;;0.30;0.30;;;9.70;99.90;;;;;;6216639;23;20000;-65
2022/01/29 09:13:30;;;;;;;0.82;0.60;;;9.70;99.90;;;;;;6216468;23;20013;-65
2022/01/29 09:15:57;;;;;;;1.05;0.57;;;9.70;99.90;;;;;;6216127;23;20495;-65
2022/01/29 09:18:25;;;;;;;0.98;0.45;;;9.80;99.90;;;;;;6216980;23;20043;-65
2022/01/29 09:20:52;;;;;;;2.03;0.55;;;9.80;99.90;;;;;;6190177;23;20080;-65
2022/01/29 09:23:19;;;;;;;1.38;0.32;;;9.80;99.90;;;;;;6217045;23;20004;-65
2022/01/29 09:25:46;;;;;;;3.25;0.80;;;9.80;99.90;;;;;;6190061;23;20308;-65
2022/01/29 09:28:13;;;;;;;0.98;0.60;;;9.90;99.90;;;;;;6216441;23;20021;-65
2022/01/29 09:30:41;;;;;;;0.68;0.68;;;10.00;99.90;;;;;;6216282;23;20035;-65
2022/01/29 09:33:08;;;;;;;2.13;0.80;;;9.90;99.90;;;;;;6216970;23;20012;-65
2022/01/29 09:35:35;;;;;;;1.50;0.73;;;9.90;99.90;;;;;;6216558;23;20386;-65
2022/01/29 09:38:02;;;;;;;3.05;0.82;;;10.00;99.90;;;;;;6216543;23;20438;-65
2022/01/29 09:40:29;;;;;;;1.08;0.80;;;10.10;99.90;;;;;;6216565;23;20008;-66
2022/01/29 09:43:01;;;;;;;1.60;0.63;;;10.10;99.90;;;;;;6216425;23;20008;-66
2022/01/29 09:45:28;;;;;;;2.40;0.85;;;10.10;99.90;;;;;;6216454;23;20028;-65
2022/01/29 09:48:01;;;;;;;1.38;0.98;;;9.90;99.90;;;;;;6216229;23;20024;-65
2022/01/29 09:50:35;;;;;;;6.32;1.42;;;10.00;99.90;;;;;;6216395;23;20008;-65
2022/01/29 09:53:04;;;;;;;3.53;1.13;;;10.20;99.90;;;;;;6216445;23;20308;-65
2022/01/29 09:55:31;;;;;;;3.53;1.08;;;10.20;99.90;;;;;;6216204;23;20004;-65
2022/01/29 09:57:59;;;;;;;2.33;0.88;;;9.90;99.90;;;;;;6216177;23;20051;-65
2022/01/29 10:00:26;;;;;;;0.60;0.60;;;9.90;99.90;;;;;;6216241;23;20005;-65
2022/01/29 10:03:11;;;;;;;0.73;0.73;;;9.80;99.90;;;;;;6216238;23;20008;-65
2022/01/29 10:05:41;;;;;;;3.35;0.68;;;9.90;99.90;;;;;;6216163;23;20430;-65
2022/01/29 10:08:09;;;;;;;7.15;0.60;;;10.00;99.90;;;;;;6216236;23;20347;-66
2022/01/29 10:10:48;;;;;;;1.02;0.65;;;10.10;99.90;;;;;;6216224;23;19997;-65
2022/01/29 10:13:35;;;;;;;1.30;0.60;;;10.00;99.90;;;;;;6216022;23;20013;-65
2022/01/29 10:16:25;;;;;;;1.70;0.50;;;9.80;99.90;;;;;;6215900;23;20119;-66
2022/01/29 10:19:00;;;;;;;1.05;0.70;;;9.70;99.90;;;;;;6216026;23;20012;-65
2022/01/29 10:21:43;;;;;;;2.75;1.17;;;9.70;99.90;;;;;;6189274;23;20015;-66
2022/01/29 10:24:15;;;;;;;1.05;0.60;;;9.90;99.90;;;;;;6215807;23;20009;-65
2022/01/29 10:26:48;;;;;;;2.45;0.73;;;10.00;99.90;;;;;;6215848;23;20451;-66
2022/01/29 10:29:25;;;;;;;1.70;0.60;;;10.00;99.90;;;;;;6216067;23;20056;-65
2022/01/29 10:32:00;;;;;;;0.90;0.70;;;10.00;99.90;;;;;;6216435;23;20071;-66
2022/01/29 10:34:36;;;;;;;0.95;0.70;;;9.90;99.90;;;;;;6216315;23;20013;-66
2022/01/29 10:37:26;;;;;;;0.80;0.60;;;9.90;99.90;;;;;;6216251;23;20491;-66
2022/01/29 10:39:52;;;;;;;1.50;0.65;;;9.80;99.90;;;;;;6215891;23;20009;-66
2022/01/29 10:42:33;;;;;;;3.47;0.73;;;9.80;99.90;;;;;;6216736;23;20326;-66
2022/01/29 10:45:07;;;;;;;3.53;0.82;;;9.90;99.90;;;;;;6189554;23;20092;-66
2022/01/29 10:47:58;;;;;;;1.45;0.95;;;9.90;99.90;;;;;;6215848;23;20017;-65
2022/01/29 10:50:27;;;;;;;1.13;0.60;;;9.90;99.90;;;;;;6215815;23;20339;-66
2022/01/29 10:52:56;;;;;;;1.80;1.02;;;9.90;99.90;;;;;;6215872;23;20426;-66
2022/01/29 10:55:23;;;;;;;1.52;0.90;;;10.00;99.90;;;;;;6216308;23;20005;-65
2022/01/29 10:57:50;;;;;;;2.40;0.80;;;10.00;99.90;;;;;;6214317;23;20005;-65
2022/01/29 11:00:31;;;;;;;1.13;0.68;;;10.00;99.90;;;;;;6215914;23;20004;-65
2022/01/29 11:03:01;;;;;;;2.47;0.73;;;10.00;99.90;;;;;;6215901;23;20011;-65
2022/01/29 11:05:31;;;;;;;1.80;0.98;;;10.00;99.90;;;;;;6215425;23;20009;-65
2022/01/29 11:08:01;;;;;;;1.83;1.02;;;10.00;99.90;;;;;;6214617;23;20070;-65
2022/01/29 11:10:27;;;;;;;4.82;1.65;;;10.10;99.90;;;;;;6214565;23;20007;-65
2022/01/29 11:12:55;;;;;;;1.42;0.77;;;10.00;99.90;;;;;;6214303;23;20009;-65
2022/01/29 11:15:23;;;;;;;3.42;1.00;;;10.00;99.90;;;;;;6214256;23;20021;-64
2022/01/29 11:17:50;;;;;;;3.15;1.02;;;10.10;99.90;;;;;;6214224;23;20075;-65
2022/01/29 11:20:17;;;;;;;1.35;0.90;;;10.10;99.90;;;;;;6214341;23;20008;-65
2022/01/29 11:22:50;;;;;;;3.50;1.00;;;10.10;99.90;;;;;;6214389;23;20453;-65
2022/01/29 11:25:23;;;;;;;2.13;0.60;;;10.10;99.90;;;;;;6214443;23;20011;-65
2022/01/29 11:28:18;;;;;;;0.57;0.57;;;10.00;99.90;;;;;;6187681;23;20624;-65
2022/01/29 11:31:08;;;;;;;3.80;1.00;;;10.00;99.90;;;;;;6184761;23;20013;-65
2022/01/29 11:34:03;;;;;;;2.50;1.23;;;10.00;99.90;;;;;;6194301;23;20035;-65
2022/01/29 11:36:56;;;;;;;1.30;0.60;;;10.00;99.90;;;;;;6216206;23;20811;-65
2022/01/29 11:39:25;;;;;;;1.70;0.90;;;9.90;99.90;;;;;;6211218;23;20070;-65
2022/01/29 11:42:13;;;;;;;3.13;1.08;;;10.00;99.90;;;;;;6216104;23;20028;-65
2022/01/29 11:44:42;;;;;;;1.55;0.82;;;10.00;99.90;;;;;;6215979;23;20011;-65
2022/01/29 11:47:25;;;;;;;3.22;0.85;;;10.00;99.90;;;;;;6216396;23;20099;-65
2022/01/29 11:50:13;;;;;;;2.70;1.38;;;10.00;99.90;;;;;;6216075;23;20514;-65
2022/01/29 11:53:01;;;;;;;5.05;1.08;;;10.00;99.90;;;;;;6216029;23;20481;-65
2022/01/29 11:55:41;;;;;;;1.73;0.95;;;9.90;99.90;;;;;;6216229;23;20032;-65
2022/01/29 11:58:16;;;;;;;1.08;0.82;;;10.00;99.90;;;;;;6216119;23;20084;-65
2022/01/29 12:00:55;;;;;;;0.82;0.60;;;10.00;99.90;;;;;;6215987;23;20009;-65
2022/01/29 12:03:39;;;;;;;1.65;0.80;;;9.90;99.90;;;;;;6189540;23;20032;-65
2022/01/29 12:06:17;;;;;;;4.93;0.70;;;9.90;99.90;;;;;;6189508;23;20013;-65
2022/01/29 12:09:21;;;;;;;1.75;0.77;;;10.00;99.90;;;;;;6189703;23;20442;-66
2022/01/29 12:12:17;;;;;;;1.38;0.50;;;10.00;99.90;;;;;;6217186;23;20055;-66
2022/01/29 12:14:50;;;;;;;0.68;0.50;;;10.00;99.90;;;;;;6207111;23;20020;-65
2022/01/29 12:17:37;;;;;;;4.03;1.13;;;10.00;99.90;;;;;;6217061;23;20005;-65
2022/01/29 12:20:06;;;;;;;1.38;0.73;;;10.00;99.90;;;;;;6217319;23;20004;-65
2022/01/29 12:22:36;;;;;;;1.80;0.98;;;10.00;99.90;;;;;;6217213;23;20012;-66
2022/01/29 12:25:08;;;;;;;1.50;0.52;;;10.10;99.90;;;;;;6217528;23;20334;-66
2022/01/29 12:27:46;;;;;;;1.85;0.75;;;10.10;99.90;;;;;;6190971;23;20456;-65
2022/01/29 12:30:22;;;;;;;3.88;0.70;;;9.90;99.90;;;;;;6217528;23;20016;-65
2022/01/29 12:33:11;;;;;;;2.45;0.70;;;9.90;99.90;;;;;;6217160;23;20431;-66
2022/01/29 12:36:00;;;;;;;2.88;1.02;;;10.00;99.90;;;;;;6218022;23;20007;-83
2022/01/29 12:38:30;;;;;;;1.52;0.65;;;9.90;99.90;;;;;;6165805;23;20079;-78
2022/01/29 12:41:03;;;;;;;2.67;1.10;;;9.90;99.90;;;;;;6190755;23;20008;-79
2022/01/29 12:43:38;;;;;;;2.92;0.95;;;9.90;99.90;;;;;;6190442;23;20449;-77
2022/01/29 12:46:18;;;;;;;1.15;0.90;;;10.00;99.90;;;;;;6190792;23;20040;-77
2022/01/29 12:49:11;;;;;;;3.65;0.70;;;10.00;99.90;;;;;;6217521;23;20013;-77
2022/01/29 12:51:59;;;;;;;1.77;1.17;;;9.90;99.90;;;;;;6217129;23;20059;-77
2022/01/29 12:54:29;;;;;;;5.82;1.65;;;9.80;99.90;;;;;;6190366;23;20426;-77
2022/01/29 12:56:56;;;;;;;3.83;1.08;;;9.80;99.90;;;;;;6216787;23;20004;-77
2022/01/29 12:59:23;;;;;;;3.00;1.00;;;9.80;99.90;;;;;;6215521;23;20004;-77
2022/01/29 13:01:49;;;;;;;1.85;0.88;;;9.70;99.90;;;;;;6189226;23;20004;-77
2022/01/29 13:04:19;;;;;;;2.67;0.70;;;9.60;99.90;;;;;;6215699;23;20016;-77
2022/01/29 13:06:47;;;;;;;2.25;1.10;;;9.80;99.90;;;;;;6215696;23;20017;-78
2022/01/29 13:09:18;;;;;;;1.90;1.20;;;9.90;99.90;;;;;;6189901;23;20001;-78
2022/01/29 13:11:45;;;;;;;2.72;1.38;;;9.90;99.90;;;;;;6215596;23;20005;-78
2022/01/29 13:14:13;;;;;;;4.03;1.00;;;10.00;99.90;;;;;;6215484;23;20433;-78
2022/01/29 13:16:39;;;;;;;2.75;1.05;;;10.10;99.90;;;;;;6216123;23;20009;-77
2022/01/29 13:19:07;;;;;;;1.48;1.17;;;10.00;99.90;;;;;;6215208;23;20008;-77
2022/01/29 13:21:37;;;;;;;1.75;0.77;;;10.00;99.90;;;;;;6215628;23;20004;-77
2022/01/29 13:24:33;;;;;;;2.30;0.90;;;10.00;99.90;;;;;;6215384;23;20009;-78
2022/01/29 13:27:08;;;;;;;1.23;0.73;;;10.00;99.90;;;;;;6216126;23;20312;-77
2022/01/29 13:29:44;;;;;;;4.80;0.90;;;9.80;99.90;;;;;;6216579;23;20009;-77